Time,TemperatureF,DewpointF,PressureIn,WindDirection,WindDirectionDegrees,WindSpeedMPH,WindSpeedGustMPH,Humidity,HourlyPrecipIn,Conditions,Clouds,dailyrainin,SoftwareType,DateUTC
2017-10-23 00:02:00,56.8,34.5,29.89,South,184,11.5,11.5,43,0.00,CLR,SKC,0.00,WeatherDisplay:10.37,2017-10-23 05:02:00,
2017-10-23 00:07:00,56.8,35.1,29.89,SW,223,11.5,11.5,44,0.00,CLR,SKC,0.00,WeatherDisplay:10.37,2017-10-23 05:07:00,
2017-10-23 00:12:00,56.8,35.1,29.89,South,169,16.1,16.1,44,0.00,CLR,SKC,0.00,WeatherDisplay:10.37,2017-10-23 05:12:00,
2017-10-23 00:17:00,56.8,35.1,29.89,South,171,11.5,11.5,44,0.00,CLR,SKC,0.00,WeatherDisplay:10.37,2017-10-23 05:17:00,
2017-10-23 00:22:00,56.9,35.2,29.89,SSE,163,10.4,10.4,44,0.00,CLR,SKC,0.00,WeatherDisplay:10.37,2017-10-23 05:22:00,
2017-10-23 00:27:00,56.9,34.6,29.88,SSE,153,17.3,17.3,43,0.00,CLR,SKC,0.00,WeatherDisplay:10.37,2017-10-23 05:27:00,
2017-10-23 00:32:00,57.0,35.3,29.88,SSW,192,10.0,10.0,44,0.00,CLR,SKC,0.00,WeatherDisplay:10.37,2017-10-23 05:32:00,
2017-10-23 00:37:00,57.0,35.3,29.88,SSW,209,15.0,15.0,44,0.00,CLR,SKC,0.00,WeatherDisplay:10.37,2017-10-23 05:37:00,
2017-10-23 00:42:00,57.0,35.3,29.88,SSE,161,13.8,13.8,44,0.00,CLR,SKC,0.00,WeatherDisplay:10.37,2017-10-23 05:42:00,
2017-10-23 00:47:00,57.1,35.4,29.88,SSW,202,11.5,11.5,44,0.00,CLR,SKC,0.00,WeatherDisplay:10.37,2017-10-23 05:47:00,
2017-10-23 00:52:00,56.9,35.2,29.88,SSE,158,9.2,9.2,44,0.00,CLR,SKC,0.00,WeatherDisplay:10.37,2017-10-23 05:52:00,
2017-10-23 00:57:00,56.8,35.7,29.88,SSE,163,9.2,9.2,45,0.00,CLR,SKC,0.00,WeatherDisplay:10.37,2017-10-23 05:57:00,
2017-10-23 01:02:00,56.8,35.7,29.88,SSW,207,8.1,8.1,45,0.00,CLR,SKC,0.00,WeatherDisplay:10.37,2017-10-23 06:02:00,
2017-10-23 01:07:00,56.8,35.7,29.88,South,172,9.2,9.2,45,0.00,CLR,SKC,0.00,WeatherDisplay:10.37,2017-10-23 06:07:00,
2017-10-23 01:12:00,56.7,36.1,29.87,SSW,195,5.8,5.8,46,0.00,CLR,SKC,0.00,WeatherDisplay:10.37,2017-10-23 06:12:00,
2017-10-23 01:17:00,56.6,36.0,29.87,SSW,198,13.8,13.8,46,0.00,CLR,SKC,0.00,WeatherDisplay:10.37,2017-10-23 06:17:00,
2017-10-23 01:22:00,56.7,35.6,29.87,South,175,11.5,11.5,45,0.00,CLR,SKC,0.00,WeatherDisplay:10.37,2017-10-23 06:22:00,
2017-10-23 01:27:00,56.8,35.7,29.87,SSW,198,23.0,23.0,45,0.00,CLR,SKC,0.00,WeatherDisplay:10.37,2017-10-23 06:27:00,
2017-10-23 01:32:00,56.7,36.1,29.87,South,191,11.5,11.5,46,0.00,CLR,SKC,0.00,WeatherDisplay:10.37,2017-10-23 06:32:00,
2017-10-23 01:37:00,56.6,36.0,29.86,South,179,13.8,13.8,46,0.00,CLR,SKC,0.00,WeatherDisplay:10.37,2017-10-23 06:37:00,
2017-10-23 01:42:00,56.6,36.0,29.86,South,176,11.5,11.5,46,0.00,CLR,SKC,0.00,WeatherDisplay:10.37,2017-10-23 06:42:00,
2017-10-23 01:47:00,56.5,36.0,29.86,South,182,6.9,6.9,46,0.00,CLR,SKC,0.00,WeatherDisplay:10.37,2017-10-23 06:47:00,
2017-10-23 01:52:00,56.4,35.9,29.86,South,186,11.5,11.5,46,0.00,CLR,SKC,0.00,WeatherDisplay:10.37,2017-10-23 06:52:00,
2017-10-23 01:57:00,56.4,35.9,29.86,South,173,13.8,13.8,46,0.00,CLR,SKC,0.00,WeatherDisplay:10.37,2017-10-23 06:57:00,
2017-10-23 02:02:00,56.4,35.9,29.85,SE,140,8.1,8.1,46,0.00,CLR,SKC,0.00,WeatherDisplay:10.37,2017-10-23 07:02:00,
2017-10-23 02:07:00,56.3,35.8,29.85,South,169,12.0,12.0,46,0.00,CLR,SKC,0.00,WeatherDisplay:10.37,2017-10-23 07:07:00,
2017-10-23 02:12:00,56.3,35.8,29.85,SSW,202,16.1,16.1,46,0.00,CLR,SKC,0.00,WeatherDisplay:10.37,2017-10-23 07:12:00,
2017-10-23 02:17:00,56.1,35.6,29.85,SSE,153,11.5,11.5,46,0.00,CLR,SKC,0.00,WeatherDisplay:10.37,2017-10-23 07:17:00,
2017-10-23 02:22:00,55.9,35.9,29.85,South,189,9.2,9.2,47,0.00,CLR,SKC,0.00,WeatherDisplay:10.37,2017-10-23 07:22:00,
2017-10-23 02:27:00,55.6,35.7,29.85,SSE,167,17.3,17.3,47,0.00,CLR,SKC,0.00,WeatherDisplay:10.37,2017-10-23 07:27:00,
2017-10-23 02:33:00,55.5,36.1,29.85,SSW,195,11.5,11.5,48,0.00,CLR,SKC,0.00,WeatherDisplay:10.37,2017-10-23 07:33:00,
2017-10-23 02:38:00,55.3,35.9,29.85,SE,144,11.5,11.5,48,0.00,CLR,SKC,0.00,WeatherDisplay:10.37,2017-10-23 07:38:00,
2017-10-23 02:43:00,55.1,35.7,29.84,SE,145,13.8,13.8,48,0.00,CLR,SKC,0.00,WeatherDisplay:10.37,2017-10-23 07:43:00,
2017-10-23 02:48:00,55.0,35.7,29.84,South,180,10.0,10.0,48,0.00,CLR,SKC,0.00,WeatherDisplay:10.37,2017-10-23 07:48:00,
2017-10-23 02:53:00,54.8,36.0,29.84,South,172,8.1,8.1,49,0.00,CLR,SKC,0.00,WeatherDisplay:10.37,2017-10-23 07:53:00,
2017-10-23 02:58:00,54.7,35.9,29.84,SW,223,10.4,10.4,49,0.00,CLR,SKC,0.00,WeatherDisplay:10.37,2017-10-23 07:58:00,
2017-10-23 03:03:00,54.4,36.1,29.84,SE,134,9.2,9.2,50,0.00,CLR,SKC,0.00,WeatherDisplay:10.37,2017-10-23 08:03:00,
2017-10-23 03:08:00,54.2,35.9,29.84,South,186,11.5,11.5,50,0.00,CLR,SKC,0.00,WeatherDisplay:10.37,2017-10-23 08:08:00,
2017-10-23 03:13:00,53.9,36.2,29.84,SSW,196,9.2,9.2,51,0.00,CLR,SKC,0.00,WeatherDisplay:10.37,2017-10-23 08:13:00,
2017-10-23 03:18:00,53.7,36.0,29.84,SSW,209,8.0,8.0,51,0.00,CLR,SKC,0.00,WeatherDisplay:10.37,2017-10-23 08:18:00,
2017-10-23 03:23:00,53.5,36.3,29.84,SSE,165,9.2,9.2,52,0.00,CLR,SKC,0.00,WeatherDisplay:10.37,2017-10-23 08:23:00,
2017-10-23 03:28:00,53.4,36.2,29.84,SSE,155,6.9,6.9,52,0.00,CLR,SKC,0.00,WeatherDisplay:10.37,2017-10-23 08:28:00,
2017-10-23 03:33:00,53.4,36.2,29.84,South,183,11.5,11.5,52,0.00,CLR,SKC,0.00,WeatherDisplay:10.37,2017-10-23 08:33:00,
2017-10-23 03:38:00,53.5,36.3,29.84,SSE,161,6.9,6.9,52,0.00,CLR,SKC,0.00,WeatherDisplay:10.37,2017-10-23 08:38:00,
2017-10-23 03:43:00,53.5,36.3,29.83,SSW,210,10.4,10.4,52,0.00,CLR,SKC,0.00,WeatherDisplay:10.37,2017-10-23 08:43:00,
2017-10-23 03:48:00,53.6,35.9,29.83,West,269,6.9,6.9,51,0.00,CLR,SKC,0.00,WeatherDisplay:10.37,2017-10-23 08:48:00,
2017-10-23 03:53:00,53.7,35.5,29.83,South,180,10.4,10.4,50,0.00,CLR,SKC,0.00,WeatherDisplay:10.37,2017-10-23 08:53:00,
2017-10-23 03:58:00,53.7,36.0,29.83,South,176,10.4,10.4,51,0.00,CLR,SKC,0.00,WeatherDisplay:10.37,2017-10-23 08:58:00,
2017-10-23 04:03:00,53.5,36.3,29.82,South,177,13.0,13.0,52,0.00,CLR,SKC,0.00,WeatherDisplay:10.37,2017-10-23 09:03:00,
2017-10-23 04:08:00,53.2,36.0,29.82,South,188,9.2,9.2,52,0.00,CLR,SKC,0.00,WeatherDisplay:10.37,2017-10-23 09:08:00,
2017-10-23 04:13:00,53.0,35.8,29.82,South,169,11.5,11.5,52,0.00,CLR,SKC,0.00,WeatherDisplay:10.37,2017-10-23 09:13:00,
2017-10-23 04:18:00,52.8,36.1,29.82,South,184,8.1,8.1,53,0.00,CLR,SKC,0.00,WeatherDisplay:10.37,2017-10-23 09:18:00,
2017-10-23 04:23:00,52.5,35.8,29.81,SSE,155,6.9,6.9,53,0.00,CLR,SKC,0.00,WeatherDisplay:10.37,2017-10-23 09:23:00,
2017-10-23 04:28:00,52.5,35.8,29.81,SSW,209,11.5,11.5,53,0.00,CLR,SKC,0.00,WeatherDisplay:10.37,2017-10-23 09:28:00,
2017-10-23 04:33:00,52.6,35.9,29.81,South,189,11.5,11.5,53,0.00,CLR,SKC,0.00,WeatherDisplay:10.37,2017-10-23 09:33:00,
2017-10-23 04:38:00,52.8,36.1,29.81,SSW,202,8.1,8.1,53,0.00,CLR,SKC,0.00,WeatherDisplay:10.37,2017-10-23 09:38:00,
2017-10-23 04:43:00,53.0,36.3,29.81,South,176,12.7,12.7,53,0.00,CLR,SKC,0.00,WeatherDisplay:10.37,2017-10-23 09:43:00,
2017-10-23 04:48:00,53.1,35.9,29.80,South,175,10.4,10.4,52,0.00,CLR,SKC,0.00,WeatherDisplay:10.37,2017-10-23 09:48:00,
2017-10-23 04:53:00,53.2,36.0,29.80,SSE,159,15.0,15.0,52,0.00,CLR,SKC,0.00,WeatherDisplay:10.37,2017-10-23 09:53:00,
2017-10-23 04:58:00,53.4,35.7,29.80,SSW,200,19.6,19.6,51,0.00,CLR,SKC,0.00,WeatherDisplay:10.37,2017-10-23 09:58:00,
2017-10-23 05:03:00,53.5,36.3,29.81,South,171,16.0,16.0,52,0.00,CLR,SKC,0.00,WeatherDisplay:10.37,2017-10-23 10:03:00,
2017-10-23 05:08:00,53.5,36.3,29.81,SW,219,13.8,13.8,52,0.00,CLR,SKC,0.00,WeatherDisplay:10.37,2017-10-23 10:08:00,
2017-10-23 05:13:00,53.4,36.2,29.80,SSW,203,20.7,20.7,52,0.00,CLR,SKC,0.00,WeatherDisplay:10.37,2017-10-23 10:13:00,
2017-10-23 05:18:00,53.2,36.5,29.80,South,186,8.0,8.0,53,0.00,CLR,SKC,0.00,WeatherDisplay:10.37,2017-10-23 10:18:00,
2017-10-23 05:23:00,52.9,36.2,29.80,SSW,210,9.2,9.2,53,0.00,CLR,SKC,0.00,WeatherDisplay:10.37,2017-10-23 10:23:00,
2017-10-23 05:28:00,52.7,36.0,29.80,SSE,159,11.5,11.5,53,0.00,CLR,SKC,0.00,WeatherDisplay:10.37,2017-10-23 10:28:00,
2017-10-23 05:33:00,52.5,36.3,29.80,SW,223,3.5,3.5,54,0.00,CLR,SKC,0.00,WeatherDisplay:10.37,2017-10-23 10:33:00,
2017-10-23 05:38:00,52.3,36.6,29.79,South,190,5.0,5.0,55,0.00,CLR,SKC,0.00,WeatherDisplay:10.37,2017-10-23 10:38:00,
2017-10-23 05:43:00,52.0,36.3,29.79,SE,138,5.0,5.0,55,0.00,CLR,SKC,0.00,WeatherDisplay:10.37,2017-10-23 10:43:00,
2017-10-23 05:48:00,51.7,36.5,29.80,SE,131,4.6,4.6,56,0.00,CLR,SKC,0.00,WeatherDisplay:10.37,2017-10-23 10:48:00,
2017-10-23 05:53:00,51.5,36.3,29.80,SW,221,11.5,11.5,56,0.00,CLR,SKC,0.00,WeatherDisplay:10.37,2017-10-23 10:53:00,
2017-10-23 05:58:00,51.3,36.6,29.79,SE,138,11.5,11.5,57,0.00,CLR,SKC,0.00,WeatherDisplay:10.37,2017-10-23 10:58:00,
2017-10-23 06:03:00,51.3,36.6,29.78,South,176,8.1,8.1,57,0.00,CLR,SKC,0.00,WeatherDisplay:10.37,2017-10-23 11:03:00,
2017-10-23 06:08:00,51.1,36.4,29.79,South,191,8.1,8.1,57,0.00,CLR,SKC,0.00,WeatherDisplay:10.37,2017-10-23 11:08:00,
2017-10-23 06:13:00,50.9,36.6,29.79,SSE,163,8.1,8.1,58,0.00,CLR,SKC,0.00,WeatherDisplay:10.37,2017-10-23 11:13:00,
2017-10-23 06:18:00,50.8,36.5,29.80,SSW,198,3.5,3.5,58,0.00,CLR,SKC,0.00,WeatherDisplay:10.37,2017-10-23 11:18:00,
2017-10-23 06:23:00,50.6,36.8,29.80,South,184,9.2,9.2,59,0.00,CLR,SKC,0.00,WeatherDisplay:10.37,2017-10-23 11:23:00,
2017-10-23 06:28:00,50.6,36.8,29.80,SSW,194,4.6,4.6,59,0.00,CLR,SKC,0.00,WeatherDisplay:10.37,2017-10-23 11:28:00,
2017-10-23 06:33:00,50.6,36.8,29.81,South,181,6.9,6.9,59,0.00,CLR,SKC,0.00,WeatherDisplay:10.37,2017-10-23 11:33:00,
2017-10-23 06:38:00,50.7,36.9,29.80,SW,222,9.2,9.2,59,0.00,CLR,SKC,0.00,WeatherDisplay:10.37,2017-10-23 11:38:00,
2017-10-23 06:43:00,50.8,37.0,29.80,SSW,197,11.5,11.5,59,0.00,CLR,SKC,0.00,WeatherDisplay:10.37,2017-10-23 11:43:00,
2017-10-23 06:48:00,50.9,37.1,29.80,SSW,209,8.1,8.1,59,0.00,CLR,SKC,0.00,WeatherDisplay:10.37,2017-10-23 11:48:00,
2017-10-23 06:53:00,50.9,37.1,29.81,South,186,14.0,14.0,59,0.00,CLR,SKC,0.00,WeatherDisplay:10.37,2017-10-23 11:53:00,
2017-10-23 06:58:00,51.0,37.6,29.80,WSW,242,11.0,11.0,60,0.00,CLR,SKC,0.00,WeatherDisplay:10.37,2017-10-23 11:58:00,
2017-10-23 07:03:00,50.7,37.3,29.80,South,191,11.5,11.5,60,0.00,CLR,SKC,0.00,WeatherDisplay:10.37,2017-10-23 12:03:00,
2017-10-23 07:08:00,50.4,37.0,29.79,SSW,209,11.5,11.5,60,0.00,CLR,SKC,0.00,WeatherDisplay:10.37,2017-10-23 12:08:00,
2017-10-23 07:13:00,50.2,37.3,29.79,WSW,250,4.6,5.6,61,0.00,CLR,SKC,0.00,WeatherDisplay:10.37,2017-10-23 12:13:00,
2017-10-23 07:18:00,50.1,37.2,29.80,WSW,258,11.5,11.5,61,0.00,CLR,SKC,0.00,WeatherDisplay:10.37,2017-10-23 12:18:00,
2017-10-23 07:23:00,50.0,37.5,29.80,WSW,242,6.9,6.9,62,0.00,CLR,SKC,0.00,WeatherDisplay:10.37,2017-10-23 12:23:00,
2017-10-23 07:28:00,49.9,37.4,29.80,SSW,205,10.4,10.4,62,0.00,CLR,SKC,0.00,WeatherDisplay:10.37,2017-10-23 12:28:00,
2017-10-23 07:29:00,49.9,37.4,29.80,SSW,207,10.4,10.4,62,0.00,CLR,SKC,0.00,WeatherDisplay:10.37,2017-10-23 12:29:00,
2017-10-23 07:34:00,49.9,37.4,29.80,SW,214,6.0,6.0,62,0.00,CLR,SKC,0.00,WeatherDisplay:10.37,2017-10-23 12:34:00,
2017-10-23 07:39:00,49.9,37.4,29.80,South,177,8.1,8.1,62,0.00,CLR,SKC,0.00,WeatherDisplay:10.37,2017-10-23 12:39:00,
2017-10-23 07:44:00,49.9,37.4,29.80,SSW,195,9.2,9.2,62,0.00,CLR,SKC,0.00,WeatherDisplay:10.37,2017-10-23 12:44:00,
2017-10-23 07:49:00,49.7,37.6,29.80,SW,227,10.4,10.4,63,0.00,CLR,SKC,0.00,WeatherDisplay:10.37,2017-10-23 12:49:00,
2017-10-23 07:54:00,49.6,37.5,29.80,SW,215,9.2,9.2,63,0.00,CLR,SKC,0.00,WeatherDisplay:10.37,2017-10-23 12:54:00,
2017-10-23 07:59:00,49.4,37.7,29.80,WSW,240,9.2,9.2,64,0.00,CLR,SKC,0.00,WeatherDisplay:10.37,2017-10-23 12:59:00,
2017-10-23 08:04:00,49.3,37.6,29.79,SW,214,11.5,11.5,64,0.00,CLR,SKC,0.00,WeatherDisplay:10.37,2017-10-23 13:04:00,
2017-10-23 08:09:00,49.2,37.9,29.79,WSW,256,7.0,7.0,65,0.00,CLR,SKC,0.00,WeatherDisplay:10.37,2017-10-23 13:09:00,
2017-10-23 08:14:00,49.2,37.9,29.80,WSW,241,6.9,6.9,65,0.00,CLR,SKC,0.00,WeatherDisplay:10.37,2017-10-23 13:14:00,
2017-10-23 08:19:00,49.1,38.2,29.80,WSW,258,9.2,9.2,66,0.00,CLR,SKC,0.00,WeatherDisplay:10.37,2017-10-23 13:19:00,
2017-10-23 08:24:00,49.2,38.3,29.80,SW,228,9.2,9.2,66,0.00,CLR,SKC,0.00,WeatherDisplay:10.37,2017-10-23 13:24:00,
2017-10-23 08:29:00,49.3,38.8,29.80,SW,221,9.2,9.2,67,0.00,CLR,SKC,0.00,WeatherDisplay:10.37,2017-10-23 13:29:00,
2017-10-23 08:34:00,49.6,38.7,29.80,WSW,239,10.4,10.4,66,0.00,CLR,SKC,0.00,WeatherDisplay:10.37,2017-10-23 13:34:00,
2017-10-23 08:39:00,50.2,38.9,29.80,WSW,255,10.4,10.4,65,0.00,CLR,SKC,0.00,WeatherDisplay:10.37,2017-10-23 13:39:00,
2017-10-23 08:44:00,50.7,39.4,29.80,WSW,253,9.2,9.2,65,0.00,CLR,SKC,0.00,WeatherDisplay:10.37,2017-10-23 13:44:00,
2017-10-23 08:49:00,51.4,40.0,29.80,WNW,283,10.4,10.4,65,0.00,CLR,SKC,0.00,WeatherDisplay:10.37,2017-10-23 13:49:00,
2017-10-23 08:54:00,51.9,40.5,29.79,West,274,12.7,12.7,65,0.00,CLR,SKC,0.00,WeatherDisplay:10.37,2017-10-23 13:54:00,
2017-10-23 08:59:00,52.3,40.9,29.80,West,265,13.8,13.8,65,0.00,CLR,SKC,0.00,WeatherDisplay:10.37,2017-10-23 13:59:00,
2017-10-23 09:04:00,52.6,41.2,29.80,WNW,287,13.8,13.8,65,0.00,CLR,SKC,0.00,WeatherDisplay:10.37,2017-10-23 14:04:00,
2017-10-23 09:09:00,52.9,41.4,29.80,West,263,12.7,12.7,65,0.00,CLR,SKC,0.00,WeatherDisplay:10.37,2017-10-23 14:09:00,
2017-10-23 09:14:00,53.2,41.7,29.80,WSW,244,11.5,11.5,65,0.00,CLR,SKC,0.00,WeatherDisplay:10.37,2017-10-23 14:14:00,
2017-10-23 09:19:00,53.5,42.4,29.80,WSW,244,12.7,12.7,66,0.00,CLR,SKC,0.00,WeatherDisplay:10.37,2017-10-23 14:19:00,
2017-10-23 09:24:00,54.1,42.6,29.80,WNW,288,9.2,9.2,65,0.00,CLR,SKC,0.00,WeatherDisplay:10.37,2017-10-23 14:24:00,
2017-10-23 09:29:00,54.6,42.7,29.80,West,263,10.4,10.4,64,0.00,CLR,SKC,0.00,WeatherDisplay:10.37,2017-10-23 14:29:00,
2017-10-23 09:34:00,55.1,43.1,29.80,WNW,292,13.8,13.8,64,0.00,CLR,SKC,0.00,WeatherDisplay:10.37,2017-10-23 14:34:00,
2017-10-23 09:39:00,55.5,43.1,29.80,SW,219,11.5,11.5,63,0.00,CLR,SKC,0.00,WeatherDisplay:10.37,2017-10-23 14:39:00,
2017-10-23 09:44:00,55.6,43.2,29.80,SW,232,11.5,11.5,63,0.00,CLR,SKC,0.00,WeatherDisplay:10.37,2017-10-23 14:44:00,
2017-10-23 09:49:00,55.4,43.0,29.80,West,276,12.7,12.7,63,0.00,CLR,SKC,0.00,WeatherDisplay:10.37,2017-10-23 14:49:00,
2017-10-23 09:54:00,55.3,43.3,29.80,WSW,254,11.5,11.5,64,0.00,CLR,SKC,0.00,WeatherDisplay:10.37,2017-10-23 14:54:00,
2017-10-23 09:59:00,55.5,43.5,29.80,West,265,9.2,9.2,64,0.00,CLR,SKC,0.00,WeatherDisplay:10.37,2017-10-23 14:59:00,
2017-10-23 10:04:00,55.7,43.3,29.80,West,279,12.7,12.7,63,0.00,CLR,SKC,0.00,WeatherDisplay:10.37,2017-10-23 15:04:00,
2017-10-23 10:09:00,55.9,43.1,29.80,West,271,16.1,16.1,62,0.00,CLR,SKC,0.00,WeatherDisplay:10.37,2017-10-23 15:09:00,
2017-10-23 10:14:00,56.3,43.4,29.80,WNW,298,11.5,11.5,62,0.00,CLR,SKC,0.00,WeatherDisplay:10.37,2017-10-23 15:14:00,
2017-10-23 10:19:00,56.6,43.7,29.80,West,273,13.8,13.8,62,0.00,CLR,SKC,0.00,WeatherDisplay:10.37,2017-10-23 15:19:00,
2017-10-23 10:24:00,56.8,43.1,29.80,NW,308,10.4,10.4,60,0.00,CLR,SKC,0.00,WeatherDisplay:10.37,2017-10-23 15:24:00,
2017-10-23 10:29:00,56.8,42.6,29.80,West,265,18.0,18.0,59,0.00,CLR,SKC,0.00,WeatherDisplay:10.37,2017-10-23 15:29:00,
2017-10-23 10:34:00,56.8,42.6,29.80,West,277,8.1,8.1,59,0.00,CLR,SKC,0.00,WeatherDisplay:10.37,2017-10-23 15:34:00,
2017-10-23 10:39:00,56.8,42.6,29.80,WNW,298,6.9,6.9,59,0.00,CLR,SKC,0.00,WeatherDisplay:10.37,2017-10-23 15:39:00,
2017-10-23 10:44:00,56.8,43.1,29.80,West,275,5.8,5.8,60,0.00,CLR,SKC,0.00,WeatherDisplay:10.37,2017-10-23 15:44:00,
2017-10-23 10:49:00,57.1,42.5,29.80,West,271,11.5,11.5,58,0.00,CLR,SKC,0.00,WeatherDisplay:10.37,2017-10-23 15:49:00,
2017-10-23 10:54:00,57.0,42.4,29.80,West,275,11.5,11.5,58,0.00,CLR,SKC,0.00,WeatherDisplay:10.37,2017-10-23 15:54:00,
2017-10-23 10:59:00,56.8,42.2,29.81,West,280,9.2,9.2,58,0.00,CLR,SKC,0.00,WeatherDisplay:10.37,2017-10-23 15:59:00,
2017-10-23 11:04:00,56.7,42.1,29.81,WNW,302,10.4,10.4,58,0.00,CLR,SKC,0.00,WeatherDisplay:10.37,2017-10-23 16:04:00,
2017-10-23 11:09:00,56.8,42.6,29.81,WSW,249,6.9,6.9,59,0.00,CLR,SKC,0.00,WeatherDisplay:10.37,2017-10-23 16:09:00,
2017-10-23 11:14:00,57.7,42.6,29.82,West,278,8.1,8.1,57,0.00,CLR,SKC,0.00,WeatherDisplay:10.37,2017-10-23 16:14:00,
2017-10-23 11:19:00,58.6,42.9,29.82,West,268,11.5,11.5,56,0.00,CLR,SKC,0.00,WeatherDisplay:10.37,2017-10-23 16:19:00,
2017-10-23 11:24:00,58.7,42.6,29.82,West,273,13.8,13.8,55,0.00,CLR,SKC,0.00,WeatherDisplay:10.37,2017-10-23 16:24:00,
2017-10-23 11:29:00,58.8,42.7,29.82,WSW,254,10.4,10.4,55,0.00,CLR,SKC,0.00,WeatherDisplay:10.37,2017-10-23 16:29:00,
2017-10-23 11:34:00,59.0,42.4,29.83,NW,306,8.1,8.1,54,0.00,CLR,SKC,0.00,WeatherDisplay:10.37,2017-10-23 16:34:00,
2017-10-23 11:39:00,59.0,42.4,29.82,West,269,11.5,11.5,54,0.00,CLR,SKC,0.00,WeatherDisplay:10.37,2017-10-23 16:39:00,
2017-10-23 11:44:00,58.9,42.3,29.82,WSW,255,11.5,11.5,54,0.00,CLR,SKC,0.00,WeatherDisplay:10.37,2017-10-23 16:44:00,
2017-10-23 11:49:00,59.1,41.5,29.82,West,270,12.7,12.7,52,0.00,CLR,SKC,0.00,WeatherDisplay:10.37,2017-10-23 16:49:00,
2017-10-23 11:54:00,58.7,41.1,29.82,West,277,16.1,16.1,52,0.00,CLR,SKC,0.00,WeatherDisplay:10.37,2017-10-23 16:54:00,
2017-10-23 11:59:00,58.2,41.1,29.82,West,277,11.5,11.5,53,0.00,CLR,SKC,0.00,WeatherDisplay:10.37,2017-10-23 16:59:00,
2017-10-23 12:04:00,58.4,41.3,29.82,West,272,13.8,13.8,53,0.00,CLR,SKC,0.00,WeatherDisplay:10.37,2017-10-23 17:04:00,
2017-10-23 12:09:00,58.1,41.0,29.82,WNW,285,12.7,12.7,53,0.00,CLR,SKC,0.00,WeatherDisplay:10.37,2017-10-23 17:09:00,
2017-10-23 12:14:00,58.1,41.0,29.82,West,276,13.8,13.8,53,0.00,CLR,SKC,0.00,WeatherDisplay:10.37,2017-10-23 17:14:00,
2017-10-23 12:15:00,58.1,41.5,29.82,WNW,291,9.0,9.0,54,0.00,CLR,SKC,0.00,WeatherDisplay:10.37,2017-10-23 17:15:00,
2017-10-23 12:20:00,58.1,41.5,29.82,West,273,11.5,11.5,54,0.00,CLR,SKC,0.00,WeatherDisplay:10.37,2017-10-23 17:20:00,
2017-10-23 12:25:00,57.9,40.9,29.82,West,271,18.4,18.4,53,0.00,CLR,SKC,0.00,WeatherDisplay:10.37,2017-10-23 17:25:00,
2017-10-23 12:30:00,58.0,41.4,29.81,West,276,13.0,13.0,54,0.00,CLR,SKC,0.00,WeatherDisplay:10.37,2017-10-23 17:30:00,
2017-10-23 12:35:00,58.2,41.1,29.81,WNW,295,11.5,11.5,53,0.00,CLR,SKC,0.00,WeatherDisplay:10.37,2017-10-23 17:35:00,
2017-10-23 12:40:00,58.4,40.8,29.81,West,269,15.0,15.0,52,0.00,CLR,SKC,0.00,WeatherDisplay:10.37,2017-10-23 17:40:00,
2017-10-23 12:45:00,58.3,41.2,29.81,West,278,13.8,13.8,53,0.00,CLR,SKC,0.00,WeatherDisplay:10.37,2017-10-23 17:45:00,
2017-10-23 12:50:00,58.5,41.4,29.81,WNW,299,19.6,19.6,53,0.00,CLR,SKC,0.00,WeatherDisplay:10.37,2017-10-23 17:50:00,
2017-10-23 12:55:00,59.1,42.0,29.81,WNW,300,11.5,11.5,53,0.00,CLR,SKC,0.00,WeatherDisplay:10.37,2017-10-23 17:55:00,
2017-10-23 13:00:00,59.2,41.6,29.81,NW,313,17.3,17.3,52,0.00,CLR,SKC,0.00,WeatherDisplay:10.37,2017-10-23 18:00:00,
2017-10-23 13:05:00,58.8,41.2,29.81,West,279,17.3,17.3,52,0.00,CLR,SKC,0.00,WeatherDisplay:10.37,2017-10-23 18:05:00,
2017-10-23 13:10:00,58.3,41.2,29.81,West,272,16.1,16.1,53,0.00,CLR,SKC,0.00,WeatherDisplay:10.37,2017-10-23 18:10:00,
2017-10-23 13:15:00,58.1,41.0,29.81,West,269,12.7,12.7,53,0.00,CLR,SKC,0.00,WeatherDisplay:10.37,2017-10-23 18:15:00,
2017-10-23 13:20:00,57.5,40.5,29.81,West,281,11.5,11.5,53,0.00,CLR,SKC,0.00,WeatherDisplay:10.37,2017-10-23 18:20:00,
2017-10-23 13:25:00,57.1,41.1,29.81,West,264,16.1,16.1,55,0.00,CLR,SKC,0.00,WeatherDisplay:10.37,2017-10-23 18:25:00,
2017-10-23 13:30:00,57.1,41.1,29.81,NW,313,15.0,15.0,55,0.00,CLR,SKC,0.00,WeatherDisplay:10.37,2017-10-23 18:30:00,
2017-10-23 13:35:00,56.8,40.8,29.81,NW,318,13.8,13.8,55,0.00,CLR,SKC,0.00,WeatherDisplay:10.37,2017-10-23 18:35:00,
2017-10-23 13:40:00,56.6,40.6,29.82,WNW,295,23.0,23.0,55,0.00,CLR,SKC,0.00,WeatherDisplay:10.37,2017-10-23 18:40:00,
2017-10-23 13:45:00,56.2,40.2,29.82,WSW,242,18.4,18.4,55,0.00,CLR,SKC,0.00,WeatherDisplay:10.37,2017-10-23 18:45:00,
2017-10-23 13:50:00,56.3,40.3,29.82,WNW,284,15.0,15.0,55,0.00,CLR,SKC,0.00,WeatherDisplay:10.37,2017-10-23 18:50:00,
2017-10-23 13:55:00,56.2,40.7,29.82,WNW,288,15.0,15.0,56,0.00,CLR,SKC,0.00,WeatherDisplay:10.37,2017-10-23 18:55:00,
2017-10-23 14:00:00,55.5,40.0,29.82,NW,307,17.3,17.3,56,0.00,CLR,SKC,0.00,WeatherDisplay:10.37,2017-10-23 19:00:00,
2017-10-23 14:05:00,54.8,39.8,29.83,WNW,303,24.2,24.2,57,0.00,CLR,SKC,0.00,WeatherDisplay:10.37,2017-10-23 19:05:00,
2017-10-23 14:10:00,54.2,40.2,29.83,NW,314,17.3,17.3,59,0.00,CLR,SKC,0.00,WeatherDisplay:10.37,2017-10-23 19:10:00,
2017-10-23 14:15:00,54.0,40.0,29.83,West,261,16.1,16.1,59,0.00,CLR,SKC,0.00,WeatherDisplay:10.37,2017-10-23 19:15:00,
2017-10-23 14:20:00,54.5,40.5,29.82,WNW,282,13.0,13.0,59,0.00,CLR,SKC,0.00,WeatherDisplay:10.37,2017-10-23 19:20:00,
2017-10-23 14:25:00,55.0,40.5,29.83,WNW,300,16.0,16.0,58,0.00,CLR,SKC,0.00,WeatherDisplay:10.37,2017-10-23 19:25:00,
2017-10-23 14:30:00,54.9,40.4,29.83,West,279,15.0,15.0,58,0.00,CLR,SKC,0.00,WeatherDisplay:10.37,2017-10-23 19:30:00,
2017-10-23 14:35:00,55.1,41.0,29.83,West,261,18.4,18.4,59,0.00,CLR,SKC,0.00,WeatherDisplay:10.37,2017-10-23 19:35:00,
2017-10-23 14:40:00,55.3,41.2,29.83,NW,308,12.0,12.0,59,0.00,CLR,SKC,0.00,WeatherDisplay:10.37,2017-10-23 19:40:00,
2017-10-23 14:45:00,54.1,40.1,29.83,West,270,11.5,11.5,59,0.00,CLR,SKC,0.00,WeatherDisplay:10.37,2017-10-23 19:45:00,
2017-10-23 14:50:00,53.8,40.2,29.83,WNW,303,12.7,12.7,60,0.00,CLR,SKC,0.00,WeatherDisplay:10.37,2017-10-23 19:50:00,
2017-10-23 14:55:00,53.9,40.8,29.82,WNW,298,13.8,13.8,61,0.00,CLR,SKC,0.00,WeatherDisplay:10.37,2017-10-23 19:55:00,
2017-10-23 15:00:00,53.7,41.0,29.82,West,275,19.6,19.6,62,0.00,CLR,SKC,0.00,WeatherDisplay:10.37,2017-10-23 20:00:00,
2017-10-23 15:05:00,52.9,41.0,29.82,WNW,291,17.0,17.0,64,0.00,CLR,SKC,0.00,WeatherDisplay:10.37,2017-10-23 20:05:00,
2017-10-23 15:10:00,52.5,41.1,29.82,NW,304,19.6,19.6,65,0.00,CLR,SKC,0.00,WeatherDisplay:10.37,2017-10-23 20:10:00,
2017-10-23 15:15:00,52.4,41.4,29.82,WNW,283,18.4,18.4,66,0.00,CLR,SKC,0.00,WeatherDisplay:10.37,2017-10-23 20:15:00,
2017-10-23 15:20:00,52.6,41.2,29.82,NW,312,19.6,19.6,65,0.00,CLR,SKC,0.00,WeatherDisplay:10.37,2017-10-23 20:20:00,
2017-10-23 15:25:00,52.1,41.1,29.82,WNW,300,19.6,19.6,66,0.00,CLR,SKC,0.00,WeatherDisplay:10.37,2017-10-23 20:25:00,
2017-10-23 15:28:00,52.1,41.5,29.82,WNW,297,19.6,19.6,67,0.00,CLR,SKC,0.00,WeatherDisplay:10.37,2017-10-23 20:28:00,
2017-10-23 15:33:00,51.9,41.7,29.83,WNW,292,21.9,21.9,68,0.00,CLR,SKC,0.00,WeatherDisplay:10.37,2017-10-23 20:33:00,
2017-10-23 15:38:00,51.6,41.8,29.83,WSW,251,11.5,11.5,69,0.00,CLR,SKC,0.00,WeatherDisplay:10.37,2017-10-23 20:38:00,
2017-10-23 15:43:00,51.2,41.7,29.83,West,279,17.3,17.3,70,0.00,CLR,SKC,0.00,WeatherDisplay:10.37,2017-10-23 20:43:00,
2017-10-23 15:48:00,51.0,41.9,29.83,NW,318,19.6,19.6,71,0.00,CLR,SKC,0.00,WeatherDisplay:10.37,2017-10-23 20:48:00,
2017-10-23 15:53:00,50.9,42.2,29.83,WNW,290,15.0,15.0,72,0.00,CLR,SKC,0.00,WeatherDisplay:10.37,2017-10-23 20:53:00,
2017-10-23 15:58:00,50.7,42.0,29.84,NW,318,19.6,19.6,72,0.00,CLR,SKC,0.00,WeatherDisplay:10.37,2017-10-23 20:58:00,
2017-10-23 16:03:00,50.6,42.3,29.84,NW,317,19.6,19.6,73,0.00,CLR,SKC,0.00,WeatherDisplay:10.37,2017-10-23 21:03:00,
2017-10-23 16:08:00,50.4,42.1,29.84,WNW,294,18.4,18.4,73,0.00,CLR,SKC,0.00,WeatherDisplay:10.37,2017-10-23 21:08:00,
2017-10-23 16:13:00,50.4,42.4,29.85,NW,308,16.0,16.0,74,0.00,CLR,SKC,0.00,WeatherDisplay:10.37,2017-10-23 21:13:00,
2017-10-23 16:18:00,50.3,42.3,29.85,West,275,14.0,14.0,74,0.00,CLR,SKC,0.00,WeatherDisplay:10.37,2017-10-23 21:18:00,
2017-10-23 16:23:00,50.2,42.2,29.85,WNW,290,16.0,16.0,74,0.00,CLR,SKC,0.00,WeatherDisplay:10.37,2017-10-23 21:23:00,
2017-10-23 16:24:00,50.2,42.2,29.85,WNW,283,11.5,11.5,74,0.00,CLR,SKC,0.00,WeatherDisplay:10.37,2017-10-23 21:24:00,
2017-10-23 16:29:00,50.2,42.2,29.85,WNW,300,10.4,10.4,74,0.00,CLR,SKC,0.00,WeatherDisplay:10.37,2017-10-23 21:29:00,
2017-10-23 16:34:00,50.3,42.0,29.85,NW,309,17.0,17.0,73,0.00,CLR,SKC,0.00,WeatherDisplay:10.37,2017-10-23 21:34:00,
2017-10-23 16:39:00,50.4,41.7,29.85,WNW,287,11.5,11.5,72,0.00,CLR,SKC,0.00,WeatherDisplay:10.37,2017-10-23 21:39:00,
2017-10-23 16:44:00,50.5,41.4,29.85,NW,306,19.6,19.6,71,0.00,CLR,SKC,0.00,WeatherDisplay:10.37,2017-10-23 21:44:00,
2017-10-23 16:49:00,50.5,40.7,29.86,NNW,341,21.0,21.0,69,0.00,CLR,SKC,0.00,WeatherDisplay:10.37,2017-10-23 21:49:00,
2017-10-23 16:54:00,50.5,39.9,29.86,North,10,23.0,23.0,67,0.00,CLR,SKC,0.00,WeatherDisplay:10.37,2017-10-23 21:54:00,
2017-10-23 16:59:00,50.5,39.6,29.86,WNW,292,23.0,23.0,66,0.00,CLR,SKC,0.00,WeatherDisplay:10.37,2017-10-23 21:59:00,
2017-10-23 17:04:00,50.6,39.3,29.86,NNW,337,18.4,18.4,65,0.00,CLR,SKC,0.00,WeatherDisplay:10.37,2017-10-23 22:04:00,
2017-10-23 17:09:00,50.6,38.9,29.86,NW,306,15.0,15.0,64,0.00,CLR,SKC,0.00,WeatherDisplay:10.37,2017-10-23 22:09:00,
2017-10-23 17:14:00,50.7,38.6,29.86,NNW,342,19.6,19.6,63,0.00,CLR,SKC,0.00,WeatherDisplay:10.37,2017-10-23 22:14:00,
2017-10-23 17:19:00,50.6,38.5,29.86,WNW,284,14.0,14.0,63,0.00,CLR,SKC,0.00,WeatherDisplay:10.37,2017-10-23 22:19:00,
2017-10-23 17:24:00,50.5,38.4,29.86,NNW,328,15.0,15.0,63,0.00,CLR,SKC,0.00,WeatherDisplay:10.37,2017-10-23 22:24:00,
2017-10-23 17:29:00,50.7,38.1,29.86,NW,311,17.3,17.3,62,0.00,CLR,SKC,0.00,WeatherDisplay:10.37,2017-10-23 22:29:00,
2017-10-23 17:34:00,50.7,38.1,29.86,NW,306,14.0,14.0,62,0.00,CLR,SKC,0.00,WeatherDisplay:10.37,2017-10-23 22:34:00,
2017-10-23 17:35:00,50.7,38.1,29.86,NW,315,15.0,15.0,62,0.00,CLR,SKC,0.00,WeatherDisplay:10.37,2017-10-23 22:35:00,
2017-10-23 17:40:00,50.7,38.1,29.87,WNW,292,19.6,19.6,62,0.00,CLR,SKC,0.00,WeatherDisplay:10.37,2017-10-23 22:40:00,
2017-10-23 17:45:00,50.8,38.2,29.87,NNW,333,17.3,17.3,62,0.00,CLR,SKC,0.00,WeatherDisplay:10.37,2017-10-23 22:45:00,
2017-10-23 17:50:00,50.8,38.2,29.87,NW,319,15.0,15.0,62,0.00,CLR,SKC,0.00,WeatherDisplay:10.37,2017-10-23 22:50:00,
2017-10-23 17:55:00,50.6,37.2,29.87,WNW,291,19.6,19.6,60,0.00,CLR,SKC,0.00,WeatherDisplay:10.37,2017-10-23 22:55:00,
2017-10-23 18:00:00,50.3,36.9,29.88,NW,318,12.7,12.7,60,0.00,CLR,SKC,0.00,WeatherDisplay:10.37,2017-10-23 23:00:00,
2017-10-23 18:05:00,50.2,36.8,29.88,WNW,294,20.7,20.7,60,0.00,CLR,SKC,0.00,WeatherDisplay:10.37,2017-10-23 23:05:00,
2017-10-23 18:10:00,50.0,37.1,29.88,NW,318,15.0,15.0,61,0.00,CLR,SKC,0.00,WeatherDisplay:10.37,2017-10-23 23:10:00,
2017-10-23 18:15:00,49.9,36.6,29.88,SW,235,15.0,15.0,60,0.00,CLR,SKC,0.00,WeatherDisplay:10.37,2017-10-23 23:15:00,
2017-10-23 18:20:00,50.0,36.2,29.88,West,261,18.4,18.4,59,0.00,CLR,SKC,0.00,WeatherDisplay:10.37,2017-10-23 23:20:00,
2017-10-23 18:25:00,50.0,35.8,29.88,WNW,295,13.8,13.8,58,0.00,CLR,SKC,0.00,WeatherDisplay:10.37,2017-10-23 23:25:00,
2017-10-23 18:26:00,50.0,35.4,29.88,WNW,288,14.0,14.0,57,0.00,CLR,SKC,0.00,WeatherDisplay:10.37,2017-10-23 23:26:00,
2017-10-23 18:31:00,50.0,33.5,29.89,NW,323,15.0,15.0,53,0.00,CLR,SKC,0.00,WeatherDisplay:10.37,2017-10-23 23:31:00,
2017-10-23 18:36:00,50.1,33.1,29.89,West,261,13.8,13.8,52,0.00,CLR,SKC,0.00,WeatherDisplay:10.37,2017-10-23 23:36:00,
2017-10-23 18:41:00,50.1,32.2,29.89,WNW,284,12.7,12.7,50,0.00,CLR,SKC,0.00,WeatherDisplay:10.37,2017-10-23 23:41:00,
2017-10-23 18:46:00,50.0,30.0,29.88,NW,304,17.3,17.3,46,0.00,CLR,SKC,0.00,WeatherDisplay:10.37,2017-10-23 23:46:00,
2017-10-23 18:51:00,49.9,29.9,29.89,NW,318,10.4,10.4,46,0.00,CLR,SKC,0.00,WeatherDisplay:10.37,2017-10-23 23:51:00,
2017-10-23 18:56:00,49.9,29.9,29.89,NW,317,16.1,16.1,46,0.00,CLR,SKC,0.00,WeatherDisplay:10.37,2017-10-23 23:56:00,
2017-10-23 19:01:00,49.9,30.5,29.89,WNW,292,11.5,11.5,47,0.00,CLR,SKC,0.00,WeatherDisplay:10.37,2017-10-24 00:01:00,
2017-10-23 19:06:00,49.9,30.5,29.89,NW,325,11.5,11.5,47,0.00,CLR,SKC,0.00,WeatherDisplay:10.37,2017-10-24 00:06:00,
2017-10-23 19:11:00,50.0,30.5,29.89,West,275,15.0,15.0,47,0.00,CLR,SKC,0.00,WeatherDisplay:10.37,2017-10-24 00:11:00,
2017-10-23 19:16:00,50.1,30.6,29.89,WNW,298,12.7,12.7,47,0.00,CLR,SKC,0.00,WeatherDisplay:10.37,2017-10-24 00:16:00,
2017-10-23 19:21:00,50.2,30.2,29.89,WNW,285,11.5,11.5,46,0.00,CLR,SKC,0.00,WeatherDisplay:10.37,2017-10-24 00:21:00,
2017-10-23 19:26:00,50.2,29.7,29.89,West,269,11.5,11.5,45,0.00,CLR,SKC,0.00,WeatherDisplay:10.37,2017-10-24 00:26:00,
2017-10-23 19:31:00,50.3,29.7,29.89,WNW,290,12.7,12.7,45,0.00,CLR,SKC,0.00,WeatherDisplay:10.37,2017-10-24 00:31:00,
2017-10-23 19:36:00,50.3,29.7,29.89,WNW,298,11.5,11.5,45,0.00,CLR,SKC,0.00,WeatherDisplay:10.37,2017-10-24 00:36:00,
2017-10-23 19:41:00,50.4,29.8,29.89,NW,311,9.2,9.2,45,0.00,CLR,SKC,0.00,WeatherDisplay:10.37,2017-10-24 00:41:00,
2017-10-23 19:46:00,50.5,29.9,29.88,WNW,297,19.6,19.6,45,0.00,CLR,SKC,0.00,WeatherDisplay:10.37,2017-10-24 00:46:00,
2017-10-23 19:51:00,50.6,29.5,29.88,NW,313,16.1,16.1,44,0.00,CLR,SKC,0.00,WeatherDisplay:10.37,2017-10-24 00:51:00,
2017-10-23 19:56:00,50.5,29.9,29.89,NNW,329,11.5,11.5,45,0.00,CLR,SKC,0.00,WeatherDisplay:10.37,2017-10-24 00:56:00,
2017-10-23 20:01:00,50.6,30.0,29.89,NW,314,11.5,11.5,45,0.00,CLR,SKC,0.00,WeatherDisplay:10.37,2017-10-24 01:01:00,
2017-10-23 20:06:00,50.6,30.0,29.89,NW,316,12.7,12.7,45,0.00,CLR,SKC,0.00,WeatherDisplay:10.37,2017-10-24 01:06:00,
2017-10-23 20:11:00,50.6,30.6,29.88,West,271,15.0,15.0,46,0.00,CLR,SKC,0.00,WeatherDisplay:10.37,2017-10-24 01:11:00,
2017-10-23 20:16:00,50.6,30.6,29.89,WNW,302,15.0,15.0,46,0.00,CLR,SKC,0.00,WeatherDisplay:10.37,2017-10-24 01:16:00,
2017-10-23 20:21:00,50.6,30.6,29.89,WNW,298,15.0,15.0,46,0.00,CLR,SKC,0.00,WeatherDisplay:10.37,2017-10-24 01:21:00,